createdAt,value
2022-07-29T00:00:26.503Z,100722.72
2022-07-29T00:05:40.644Z,100714.27
2022-07-29T00:10:43.350Z,100716.01
2022-07-29T00:15:45.793Z,100717.16
2022-07-29T00:20:48.186Z,100716.89
2022-07-29T00:25:50.717Z,100713.64
2022-07-29T00:30:53.227Z,100718.42
2022-07-29T00:35:55.832Z,100717.67
2022-07-29T00:40:59.728Z,100718.66
2022-07-29T00:46:02.695Z,100717.30
2022-07-29T00:51:06.690Z,100718.83
2022-07-29T00:56:09.107Z,100718.34
2022-07-29T01:01:11.554Z,100716.86
2022-07-29T01:06:15.580Z,100717.19
2022-07-29T01:11:19.172Z,100718.51
2022-07-29T01:16:38.173Z,100719.02
2022-07-29T01:21:58.450Z,100728.40
2022-07-29T01:27:32.702Z,100728.89
2022-07-29T01:32:38.117Z,100723.16
2022-07-29T01:37:46.268Z,100725.40
2022-07-29T01:42:55.616Z,100724.70
2022-07-29T01:48:13.888Z,100724.98
2022-07-29T01:53:26.739Z,100719.10
2022-07-29T01:58:32.292Z,100722.14
2022-07-29T02:03:37.242Z,100721.94
2022-07-29T02:08:41.564Z,100728.55
2022-07-29T02:13:46.373Z,100725.48
2022-07-29T02:18:51.489Z,100729.33
2022-07-29T02:23:55.408Z,100728.35
2022-07-29T02:29:01.234Z,100723.88
2022-07-29T02:34:05.906Z,100725.60
2022-07-29T02:39:10.798Z,100726.40
2022-07-29T02:44:21.828Z,100730.41
2022-07-29T02:49:30.011Z,100734.28
2022-07-29T02:54:45.298Z,100728.50
2022-07-29T02:59:52.666Z,100733.48
2022-07-29T03:04:56.884Z,100732.45
2022-07-29T03:10:02.010Z,100734.77
2022-07-29T03:15:05.298Z,100735.73
2022-07-29T03:20:09.290Z,100730.02
2022-07-29T03:25:13.537Z,100733.34
2022-07-29T03:30:21.753Z,100733.33
2022-07-29T03:35:25.648Z,100730.11
2022-07-29T03:40:50.590Z,100730.43
2022-07-29T03:45:55.970Z,100731.40
2022-07-29T03:50:58.443Z,100729.28
2022-07-29T03:56:02.994Z,100730.42
2022-07-29T04:01:06.166Z,100734.79
2022-07-29T04:06:08.662Z,100732.77
2022-07-29T04:11:11.196Z,100733.42
2022-07-29T04:16:13.627Z,100736.92
2022-07-29T04:21:16.236Z,100738.50
2022-07-29T04:26:19.605Z,100736.44
2022-07-29T04:31:25.729Z,100744.77
2022-07-29T04:36:29.899Z,100749.65
2022-07-29T04:41:33.690Z,100752.56
2022-07-29T04:46:37.195Z,100759.23
2022-07-29T04:51:40.053Z,100761.46
2022-07-29T04:56:42.780Z,100757.33
2022-07-29T05:01:45.206Z,100757.38
2022-07-29T05:06:47.775Z,100751.55
2022-07-29T05:11:50.181Z,100751.64
2022-07-29T05:16:53.773Z,100755.33
2022-07-29T05:21:56.178Z,100754.55
2022-07-29T05:26:58.621Z,100757.08
2022-07-29T05:32:01.041Z,100752.59
2022-07-29T05:37:03.435Z,100752.90
2022-07-29T05:42:10.673Z,100759.29
2022-07-29T05:47:13.216Z,100758.41
2022-07-29T05:52:16.071Z,100767.15
2022-07-29T05:57:21.117Z,100769.21
2022-07-29T06:02:23.556Z,100759.11
2022-07-29T06:07:25.998Z,100757.04
2022-07-29T06:12:28.492Z,100749.98
2022-07-29T06:17:30.938Z,100758.33
2022-07-29T06:22:33.336Z,100766.06
2022-07-29T06:27:35.765Z,100767.33
2022-07-29T06:32:42.923Z,100766.45
2022-07-29T06:37:45.701Z,100766.31
2022-07-29T06:42:51.235Z,100767.25
2022-07-29T06:47:53.685Z,100770.02
2022-07-29T06:52:56.135Z,100767.41
2022-07-29T06:57:58.558Z,100765.66
2022-07-29T07:03:00.926Z,100760.63
2022-07-29T07:08:04.183Z,100758.66
2022-07-29T07:13:06.866Z,100759.29
2022-07-29T07:18:09.899Z,100762.34
2022-07-29T07:23:12.382Z,100759.22
2022-07-29T07:28:14.968Z,100757.81
2022-07-29T07:33:17.507Z,100761.59
2022-07-29T07:38:20.099Z,100763.45
2022-07-29T07:43:23.437Z,100764.86
2022-07-29T07:48:25.853Z,100766.30
2022-07-29T07:53:30.616Z,100762.58
2022-07-29T07:58:33.553Z,100768.02
2022-07-29T08:03:36.252Z,100770.24
2022-07-29T08:08:38.637Z,100769.17
2022-07-29T08:13:41.072Z,100774.85
2022-07-29T08:18:44.724Z,100767.98
2022-07-29T08:23:57.646Z,100767.69
2022-07-29T08:29:02.280Z,100766.44
2022-07-29T08:34:05.610Z,100767.92
2022-07-29T08:39:08.053Z,100771.41
2022-07-29T08:44:10.637Z,100772.41
2022-07-29T08:49:13.161Z,100777.02
2022-07-29T08:54:19.272Z,100774.70
2022-07-29T08:59:25.512Z,100763.52
2022-07-29T09:04:34.149Z,100763.73
2022-07-29T09:09:36.536Z,100760.23
2022-07-29T09:14:39.951Z,100757.34
2022-07-29T09:19:44.775Z,100760.26
2022-07-29T09:24:48.475Z,100755.89
2022-07-29T09:30:02.479Z,100754.85
2022-07-29T09:35:23.242Z,100755.84
2022-07-29T09:40:28.516Z,100750.86
2022-07-29T09:45:32.190Z,100746.67
2022-07-29T09:50:42.126Z,100747.21
2022-07-29T09:55:52.545Z,100740.06
2022-07-29T10:00:56.909Z,100744.88
2022-07-29T10:06:15.172Z,100739.25
2022-07-29T10:11:18.533Z,100735.40
2022-07-29T10:16:20.996Z,100732.67
2022-07-29T10:21:35.942Z,100735.67
2022-07-29T10:26:41.799Z,100729.46
2022-07-29T10:32:15.257Z,100728.86
2022-07-29T10:37:35.406Z,100729.61
2022-07-29T10:42:42.182Z,100728.66
2022-07-29T10:47:45.944Z,100726.61
2022-07-29T10:52:53.395Z,100724.17
2022-07-29T10:58:21.786Z,100724.52
2022-07-29T11:03:53.719Z,100723.89
2022-07-29T11:09:20.192Z,100715.18
2022-07-29T11:14:55.614Z,100713.87
2022-07-29T11:20:30.863Z,100710.43
2022-07-29T11:25:50.156Z,100707.63
2022-07-29T11:30:55.963Z,100700.21
2022-07-29T11:36:16.934Z,100694.16
2022-07-29T11:41:26.076Z,100688.92
2022-07-29T11:46:49.958Z,100682.63
2022-07-29T11:51:54.299Z,100677.27
2022-07-29T11:56:58.717Z,100667.36
2022-07-29T12:02:33.318Z,100668.55
2022-07-29T12:07:34.605Z,100669.61
2022-07-29T12:12:39.552Z,100666.49
2022-07-29T12:17:42.734Z,100658.15
2022-07-29T12:22:45.306Z,100664.66
2022-07-29T12:27:58.996Z,100667.49
2022-07-29T12:33:02.680Z,100666.85
2022-07-29T12:38:05.453Z,100669.55
2022-07-29T12:43:13.997Z,100668.22
2022-07-29T12:48:17.514Z,100666.23
2022-07-29T12:53:20.128Z,100661.69
2022-07-29T12:58:39.725Z,100655.89
2022-07-29T13:04:00.716Z,100659.43
2022-07-29T13:09:20.624Z,100656.17
2022-07-29T13:14:48.922Z,100656.30
2022-07-29T13:20:15.590Z,100654.42
2022-07-29T13:25:34.206Z,100649.44
2022-07-29T13:30:36.638Z,100645.00
2022-07-29T13:35:48.372Z,100648.98
2022-07-29T13:40:50.760Z,100634.16
2022-07-29T13:45:53.288Z,100634.05
2022-07-29T13:50:55.826Z,100630.89
2022-07-29T13:55:58.298Z,100623.45
2022-07-29T14:01:01.539Z,100623.34
2022-07-29T14:06:03.871Z,100620.21
2022-07-29T14:11:06.341Z,100619.70
2022-07-29T14:16:09.008Z,100618.02
2022-07-29T14:21:11.426Z,100618.55
2022-07-29T14:26:15.858Z,100613.55
2022-07-29T14:31:22.887Z,100613.34
2022-07-29T14:36:25.439Z,100610.42
2022-07-29T14:41:29.156Z,100614.87
2022-07-29T14:46:31.803Z,100610.86
2022-07-29T14:51:34.451Z,100607.95
2022-07-29T14:56:37.715Z,100608.98
2022-07-29T15:01:48.782Z,100603.16
2022-07-29T15:06:52.690Z,100598.81
2022-07-29T15:11:55.387Z,100597.80
2022-07-29T15:16:58.179Z,100599.27
2022-07-29T15:22:01.632Z,100596.05
2022-07-29T15:27:04.324Z,100591.56
2022-07-29T15:32:07.010Z,100591.35
2022-07-29T15:37:11.640Z,100586.38
2022-07-29T15:42:14.072Z,100585.23
2022-07-29T15:47:20.246Z,100583.38
2022-07-29T15:52:25.630Z,100586.02
2022-07-29T15:57:28.710Z,100585.36
2022-07-29T16:02:31.587Z,100571.85
2022-07-29T16:07:34.155Z,100562.55
2022-07-29T16:12:37.162Z,100559.00
2022-07-29T16:17:39.568Z,100547.39
2022-07-29T16:22:43.146Z,100541.09
2022-07-29T16:27:45.511Z,100544.19
2022-07-29T16:32:47.945Z,100535.05
2022-07-29T16:37:50.278Z,100531.42
2022-07-29T16:42:52.687Z,100522.76
2022-07-29T16:48:00.121Z,100521.67
2022-07-29T16:53:03.407Z,100522.58
2022-07-29T16:58:05.891Z,100513.90
2022-07-29T17:03:08.331Z,100514.71
2022-07-29T17:08:10.741Z,100514.52
2022-07-29T17:13:13.189Z,100517.89
2022-07-29T17:18:15.609Z,100513.85
2022-07-29T17:23:18.039Z,100506.66
2022-07-29T17:28:20.433Z,100510.77
2022-07-29T17:33:22.862Z,100516.16
2022-07-29T17:38:25.377Z,100520.05
2022-07-29T17:43:27.994Z,100521.81
2022-07-29T17:48:30.563Z,100511.90
2022-07-29T17:53:33.150Z,100515.66
2022-07-29T17:58:36.222Z,100521.88
2022-07-29T18:03:38.653Z,100524.25
2022-07-29T18:08:41.378Z,100531.89
2022-07-29T18:13:43.814Z,100531.28
2022-07-29T18:18:46.427Z,100535.34
2022-07-29T18:23:50.594Z,100538.98
2022-07-29T18:28:53.030Z,100536.75
2022-07-29T18:33:59.874Z,100530.20
2022-07-29T18:39:02.703Z,100534.56
2022-07-29T18:44:05.233Z,100535.77
2022-07-29T18:49:08.104Z,100536.73
2022-07-29T18:54:10.592Z,100537.86
2022-07-29T18:59:16.836Z,100534.00
2022-07-29T19:04:19.275Z,100535.02
2022-07-29T19:09:21.855Z,100539.54
2022-07-29T19:14:24.277Z,100540.13
2022-07-29T19:19:26.930Z,100541.09
2022-07-29T19:24:29.364Z,100544.83
2022-07-29T19:29:32.764Z,100544.08
2022-07-29T19:34:35.577Z,100545.52
2022-07-29T19:39:37.977Z,100542.94
2022-07-29T19:44:40.421Z,100545.35
2022-07-29T19:49:42.860Z,100542.60
2022-07-29T19:54:45.324Z,100544.72
2022-07-29T19:59:48.201Z,100542.21
2022-07-29T20:04:52.089Z,100544.20
2022-07-29T20:09:55.073Z,100547.09
2022-07-29T20:14:58.071Z,100543.13
2022-07-29T20:20:01.098Z,100545.42
2022-07-29T20:25:05.496Z,100544.86
2022-07-29T20:30:08.954Z,100549.11
2022-07-29T20:35:13.793Z,100549.33
2022-07-29T20:40:16.789Z,100556.95
2022-07-29T20:45:20.027Z,100555.43
2022-07-29T20:50:24.042Z,100558.30
2022-07-29T20:55:26.923Z,100563.73
2022-07-29T21:00:29.707Z,100559.11
2022-07-29T21:05:32.689Z,100564.41
2022-07-29T21:10:35.108Z,100567.62
2022-07-29T21:15:38.064Z,100564.70
2022-07-29T21:20:40.665Z,100563.20
2022-07-29T21:25:43.293Z,100563.14
2022-07-29T21:30:45.816Z,100563.70
2022-07-29T21:36:26.615Z,100552.18
2022-07-29T21:42:15.188Z,100549.73
2022-07-29T21:47:17.623Z,100543.77
2022-07-29T21:52:20.341Z,100542.73
2022-07-29T21:57:23.519Z,100537.90
2022-07-29T22:02:26.019Z,100538.91
2022-07-29T22:07:55.442Z,100538.92
2022-07-29T22:12:52.480Z,100540.30
2022-07-29T22:17:55.574Z,100542.77
2022-07-29T22:22:58.183Z,100546.86
2022-07-29T22:28:00.598Z,100543.48
2022-07-29T22:33:03.076Z,100547.88
2022-07-29T22:38:05.443Z,100543.76
2022-07-29T22:43:08.090Z,100537.78
2022-07-29T22:48:10.588Z,100526.14
2022-07-29T22:53:13.863Z,100526.84
2022-07-29T22:58:16.226Z,100522.76
2022-07-29T23:03:18.769Z,100519.29
2022-07-29T23:08:21.257Z,100519.17
2022-07-29T23:13:23.710Z,100514.30
2022-07-29T23:18:26.143Z,100509.39
2022-07-29T23:23:32.345Z,100511.82
2022-07-29T23:28:35.084Z,100507.27
2022-07-29T23:33:37.481Z,100501.74
2022-07-29T23:38:40.892Z,100503.36
2022-07-29T23:43:43.494Z,100508.90
2022-07-29T23:48:46.268Z,100503.04
2022-07-29T23:53:53.049Z,100499.17
2022-07-29T23:58:56.515Z,100499.74
